createdAt,value
2023-12-31T00:01:37.057Z,92.54
2023-12-31T00:04:04.246Z,93.10
2023-12-31T00:06:30.755Z,92.74
2023-12-31T00:08:57.230Z,92.52
2023-12-31T00:11:23.640Z,92.59
2023-12-31T00:13:50.180Z,92.73
2023-12-31T00:16:16.932Z,92.36
2023-12-31T00:18:43.528Z,93.23
2023-12-31T00:21:10.049Z,92.53
2023-12-31T00:23:37.139Z,92.62
2023-12-31T00:26:03.868Z,93.65
2023-12-31T00:28:30.385Z,93.20
2023-12-31T00:30:56.939Z,93.66
2023-12-31T00:33:23.535Z,93.25
2023-12-31T00:35:50.274Z,93.94
2023-12-31T00:38:16.896Z,93.55
2023-12-31T00:40:43.399Z,93.43
2023-12-31T00:43:09.914Z,93.54
2023-12-31T00:45:36.571Z,93.67
2023-12-31T00:48:03.955Z,93.13
2023-12-31T00:50:31.245Z,92.61
2023-12-31T00:52:57.727Z,93.43
2023-12-31T00:55:24.241Z,93.42
2023-12-31T00:57:50.705Z,93.90
2023-12-31T01:00:17.348Z,93.51
2023-12-31T01:02:43.846Z,93.46
2023-12-31T01:05:10.451Z,93.18
2023-12-31T01:07:36.962Z,94.06
2023-12-31T01:10:04.244Z,93.37
2023-12-31T01:12:30.716Z,93.72
2023-12-31T01:14:57.161Z,94.24
2023-12-31T01:17:24.439Z,93.20
2023-12-31T01:19:50.908Z,93.18
2023-12-31T01:22:17.459Z,93.71
2023-12-31T01:24:43.964Z,92.92
2023-12-31T01:27:10.438Z,92.59
2023-12-31T01:29:39.790Z,93.00
2023-12-31T01:32:06.984Z,92.59
2023-12-31T01:34:34.801Z,92.83
2023-12-31T01:37:01.744Z,93.19
2023-12-31T01:39:28.225Z,93.06
2023-12-31T01:41:55.132Z,92.50
2023-12-31T01:44:21.680Z,93.44
2023-12-31T01:46:48.568Z,93.13
2023-12-31T01:49:15.656Z,93.14
2023-12-31T01:51:42.313Z,93.67
2023-12-31T01:54:09.054Z,92.75
2023-12-31T01:56:38.526Z,92.57
2023-12-31T01:59:05.912Z,92.47
2023-12-31T02:01:34.390Z,93.39
2023-12-31T02:04:01.409Z,92.22
2023-12-31T02:06:28.015Z,92.90
2023-12-31T02:08:54.478Z,92.49
2023-12-31T02:11:21.101Z,93.20
2023-12-31T02:13:47.592Z,92.67
2023-12-31T02:16:16.957Z,92.68
2023-12-31T02:18:44.119Z,92.11
2023-12-31T02:21:14.384Z,92.87
2023-12-31T02:23:41.723Z,92.23
2023-12-31T02:26:09.847Z,92.09
2023-12-31T02:28:36.653Z,92.15
2023-12-31T02:31:04.281Z,91.91
2023-12-31T02:33:31.142Z,91.50
2023-12-31T02:35:57.783Z,91.32
2023-12-31T02:38:24.436Z,91.02
2023-12-31T02:40:51.322Z,92.25
2023-12-31T02:43:17.944Z,91.62
2023-12-31T02:45:44.403Z,91.89
2023-12-31T02:48:11.018Z,91.32
2023-12-31T02:50:37.528Z,91.79
2023-12-31T02:53:05.862Z,91.45
2023-12-31T02:55:32.800Z,91.47
2023-12-31T02:57:59.293Z,91.42
2023-12-31T03:00:25.766Z,90.87
2023-12-31T03:02:52.263Z,91.43
2023-12-31T03:05:18.782Z,91.65
2023-12-31T03:07:45.399Z,91.44
2023-12-31T03:10:12.550Z,91.26
2023-12-31T03:12:39.143Z,90.97
2023-12-31T03:15:06.210Z,90.85
2023-12-31T03:17:32.783Z,91.37
2023-12-31T03:19:59.315Z,91.49
2023-12-31T03:22:33.457Z,92.10
2023-12-31T03:25:05.925Z,91.37
2023-12-31T03:27:32.821Z,91.00
2023-12-31T03:29:59.287Z,91.09
2023-12-31T03:32:25.824Z,91.26
2023-12-31T03:34:52.398Z,90.93
2023-12-31T03:37:19.043Z,91.03
2023-12-31T03:39:46.057Z,91.49
2023-12-31T03:42:12.744Z,91.61
2023-12-31T03:44:39.750Z,91.94
2023-12-31T03:47:06.310Z,91.48
2023-12-31T03:49:32.807Z,91.64
2023-12-31T03:51:59.630Z,91.31
2023-12-31T03:54:26.137Z,91.90
2023-12-31T03:56:52.593Z,91.31
2023-12-31T03:59:19.046Z,91.80
2023-12-31T04:01:46.799Z,91.29
2023-12-31T04:04:16.084Z,91.90
2023-12-31T04:06:43.953Z,92.14
2023-12-31T04:09:12.337Z,91.60
2023-12-31T04:11:39.236Z,91.56
2023-12-31T04:14:05.783Z,91.91
2023-12-31T04:16:32.497Z,91.64
2023-12-31T04:18:59.282Z,91.80
2023-12-31T04:21:25.909Z,91.89
2023-12-31T04:23:52.393Z,91.98
2023-12-31T04:26:19.889Z,91.93
2023-12-31T04:28:46.642Z,92.17
2023-12-31T04:31:13.543Z,92.26
2023-12-31T04:33:40.039Z,92.71
2023-12-31T04:36:06.992Z,92.40
2023-12-31T04:38:33.672Z,91.89
2023-12-31T04:41:00.321Z,92.44
2023-12-31T04:43:26.881Z,92.04
2023-12-31T04:45:54.087Z,92.56
2023-12-31T04:48:20.623Z,92.83
2023-12-31T04:50:47.089Z,92.65
2023-12-31T04:53:13.709Z,91.88
2023-12-31T04:55:40.138Z,92.60
2023-12-31T04:58:07.084Z,92.05
2023-12-31T05:00:33.551Z,92.60
2023-12-31T05:03:00.190Z,92.54
2023-12-31T05:05:27.602Z,92.38
2023-12-31T05:07:54.173Z,92.62
2023-12-31T05:10:21.374Z,92.69
2023-12-31T05:12:47.906Z,92.51
2023-12-31T05:15:14.420Z,93.45
2023-12-31T05:17:40.999Z,93.06
2023-12-31T05:20:08.993Z,93.41
2023-12-31T05:22:35.494Z,93.34
2023-12-31T05:25:02.087Z,93.74
2023-12-31T05:27:28.554Z,93.75
2023-12-31T05:29:55.004Z,93.55
2023-12-31T05:32:21.438Z,93.52
2023-12-31T05:34:47.979Z,93.96
2023-12-31T05:37:14.572Z,93.60
2023-12-31T05:39:41.450Z,93.97
2023-12-31T05:42:07.987Z,93.83
2023-12-31T05:44:34.464Z,94.33
2023-12-31T05:47:01.001Z,94.26
2023-12-31T05:49:27.615Z,95.01
2023-12-31T05:51:54.139Z,94.95
2023-12-31T05:54:20.548Z,94.68
2023-12-31T05:56:46.986Z,95.03
2023-12-31T05:59:13.699Z,94.71
2023-12-31T06:01:40.197Z,94.98
2023-12-31T06:04:07.529Z,94.62
2023-12-31T06:06:36.266Z,95.02
2023-12-31T06:09:02.949Z,94.54
2023-12-31T06:11:29.445Z,94.34
2023-12-31T06:13:55.893Z,94.36
2023-12-31T06:16:22.401Z,94.00
2023-12-31T06:18:49.542Z,94.41
2023-12-31T06:21:16.076Z,94.26
2023-12-31T06:23:42.528Z,94.45
2023-12-31T06:26:08.976Z,94.03
2023-12-31T06:28:35.689Z,93.57
2023-12-31T06:31:02.439Z,93.79
2023-12-31T06:33:29.401Z,93.56
2023-12-31T06:35:55.996Z,93.07
2023-12-31T06:38:22.469Z,92.95
2023-12-31T06:40:49.031Z,92.81
2023-12-31T06:43:15.565Z,92.66
2023-12-31T06:45:42.405Z,92.65
2023-12-31T06:48:09.038Z,92.53
2023-12-31T06:50:35.741Z,92.65
2023-12-31T06:53:02.560Z,92.94
2023-12-31T06:55:29.260Z,92.82
2023-12-31T06:57:55.899Z,92.60
2023-12-31T07:00:23.615Z,92.88
2023-12-31T07:02:50.119Z,93.32
2023-12-31T07:05:16.908Z,93.24
2023-12-31T07:07:43.396Z,92.87
2023-12-31T07:10:10.452Z,93.54
2023-12-31T07:12:37.128Z,94.00
2023-12-31T07:15:04.292Z,94.28
2023-12-31T07:17:31.159Z,94.30
2023-12-31T07:19:58.177Z,94.48
2023-12-31T07:22:25.824Z,94.42
2023-12-31T07:24:52.336Z,95.06
2023-12-31T07:27:18.788Z,95.11
2023-12-31T07:29:45.315Z,95.27
2023-12-31T07:32:11.800Z,95.33
2023-12-31T07:34:38.342Z,95.36
2023-12-31T07:37:04.983Z,95.83
2023-12-31T07:39:33.194Z,95.50
2023-12-31T07:41:59.733Z,95.72
2023-12-31T07:44:26.180Z,95.49
2023-12-31T07:46:52.671Z,95.70
2023-12-31T07:49:19.258Z,95.30
2023-12-31T07:51:46.570Z,95.50
2023-12-31T07:54:13.011Z,95.32
2023-12-31T07:56:42.321Z,94.33
2023-12-31T07:59:09.536Z,94.69
2023-12-31T08:01:36.063Z,94.50
2023-12-31T08:04:02.613Z,94.05
2023-12-31T08:06:29.248Z,94.17
2023-12-31T08:08:55.808Z,94.28
2023-12-31T08:11:22.496Z,93.89
2023-12-31T08:13:50.054Z,93.96
2023-12-31T08:16:17.561Z,93.66
2023-12-31T08:18:44.426Z,93.49
2023-12-31T08:21:11.426Z,93.18
2023-12-31T08:23:38.300Z,92.29
2023-12-31T08:26:05.002Z,91.67
2023-12-31T08:28:31.807Z,91.29
2023-12-31T08:30:58.301Z,90.82
2023-12-31T08:33:24.848Z,90.09
2023-12-31T08:35:51.296Z,90.55
2023-12-31T08:38:17.808Z,90.38
2023-12-31T08:40:44.412Z,89.54
2023-12-31T08:43:10.893Z,89.37
2023-12-31T08:45:40.560Z,87.75
2023-12-31T08:48:08.886Z,88.20
2023-12-31T08:50:35.579Z,86.21
2023-12-31T08:53:02.194Z,81.06
2023-12-31T08:55:28.876Z,79.15
2023-12-31T08:57:55.428Z,78.64
2023-12-31T09:00:21.960Z,77.49
2023-12-31T09:02:48.705Z,76.33
2023-12-31T09:05:15.516Z,75.92
2023-12-31T09:07:42.443Z,76.32
2023-12-31T09:10:09.545Z,74.86
2023-12-31T09:12:36.331Z,74.54
2023-12-31T09:15:02.815Z,73.70
2023-12-31T09:17:29.443Z,72.43
2023-12-31T09:19:59.378Z,70.71
2023-12-31T09:22:26.702Z,72.06
2023-12-31T09:24:54.130Z,68.83
2023-12-31T09:27:20.984Z,68.59
2023-12-31T09:29:47.890Z,66.33
2023-12-31T09:32:14.420Z,63.65
2023-12-31T09:34:41.309Z,64.59
2023-12-31T09:37:08.771Z,64.35
2023-12-31T09:39:35.656Z,64.78
2023-12-31T09:42:11.078Z,64.72
2023-12-31T09:44:37.870Z,66.20
2023-12-31T09:47:11.111Z,66.35
2023-12-31T09:49:40.659Z,66.96
2023-12-31T09:52:09.002Z,66.09
2023-12-31T09:54:37.865Z,66.10
2023-12-31T09:57:05.723Z,66.91
2023-12-31T09:59:32.353Z,67.54
2023-12-31T10:02:00.994Z,67.40
2023-12-31T10:04:28.193Z,68.04
2023-12-31T10:06:55.623Z,68.00
2023-12-31T10:09:32.159Z,66.91
2023-12-31T10:11:59.954Z,68.07
2023-12-31T10:14:26.525Z,67.83
2023-12-31T10:16:53.115Z,69.06
2023-12-31T10:19:20.511Z,69.66
2023-12-31T10:21:47.036Z,70.32
2023-12-31T10:24:13.570Z,71.19
2023-12-31T10:26:41.164Z,70.38
2023-12-31T10:29:07.695Z,69.64
2023-12-31T10:31:34.374Z,68.71
2023-12-31T10:34:17.992Z,69.22
2023-12-31T10:36:46.227Z,69.92
2023-12-31T10:39:29.374Z,70.15
2023-12-31T10:42:05.202Z,69.59
2023-12-31T10:44:37.010Z,70.20
2023-12-31T10:47:08.301Z,70.14
2023-12-31T10:49:35.901Z,70.24
2023-12-31T10:52:06.679Z,70.93
2023-12-31T10:54:43.494Z,70.80
2023-12-31T10:57:10.909Z,70.32
2023-12-31T10:59:40.490Z,70.63
2023-12-31T11:02:16.345Z,70.94
2023-12-31T11:04:45.982Z,71.30
2023-12-31T11:07:15.141Z,71.08
2023-12-31T11:09:47.621Z,71.63
2023-12-31T11:12:15.930Z,72.25
2023-12-31T11:14:49.444Z,71.63
2023-12-31T11:17:46.979Z,71.39
2023-12-31T11:20:55.347Z,70.99
2023-12-31T11:23:38.015Z,70.89
2023-12-31T11:26:06.715Z,71.60
2023-12-31T11:28:34.583Z,71.49
2023-12-31T11:31:05.040Z,71.06
2023-12-31T11:33:35.751Z,70.69
2023-12-31T11:36:08.916Z,70.95
2023-12-31T11:39:02.547Z,70.29
2023-12-31T11:41:46.213Z,69.83
2023-12-31T11:44:35.810Z,69.41
2023-12-31T11:47:02.417Z,68.67
2023-12-31T11:49:28.998Z,69.06
2023-12-31T11:51:59.819Z,68.39
2023-12-31T11:54:38.532Z,67.17
2023-12-31T11:57:05.907Z,67.60
2023-12-31T11:59:36.492Z,67.91
2023-12-31T12:02:04.264Z,68.16
2023-12-31T12:04:31.043Z,68.61
2023-12-31T12:06:57.669Z,68.27
2023-12-31T12:09:28.833Z,68.59
2023-12-31T12:12:13.632Z,68.95
2023-12-31T12:14:40.072Z,68.91
2023-12-31T12:17:06.781Z,69.06
2023-12-31T12:19:37.657Z,69.42
2023-12-31T12:22:04.987Z,69.09
2023-12-31T12:24:31.682Z,69.85
2023-12-31T12:27:00.191Z,69.25
2023-12-31T12:29:28.252Z,69.47
2023-12-31T12:31:54.743Z,69.41
2023-12-31T12:34:21.728Z,69.08
2023-12-31T12:36:49.238Z,69.41
2023-12-31T12:39:21.972Z,68.96
2023-12-31T12:41:49.839Z,68.99
2023-12-31T12:44:17.828Z,67.74
2023-12-31T12:46:46.521Z,67.54
2023-12-31T12:49:13.965Z,68.23
2023-12-31T12:51:41.935Z,69.21
2023-12-31T12:54:11.612Z,72.39
2023-12-31T12:56:38.406Z,75.05
2023-12-31T12:59:05.340Z,77.39
2023-12-31T13:01:32.810Z,78.18
2023-12-31T13:03:59.393Z,79.79
2023-12-31T13:06:26.086Z,81.70
2023-12-31T13:08:52.658Z,82.22
2023-12-31T13:11:19.583Z,83.91
2023-12-31T13:13:46.556Z,84.39
2023-12-31T13:16:18.876Z,85.94
2023-12-31T13:18:50.155Z,86.46
2023-12-31T13:21:17.014Z,87.33
2023-12-31T13:23:44.224Z,88.49
2023-12-31T13:26:10.744Z,88.20
2023-12-31T13:28:37.316Z,89.09
2023-12-31T13:31:04.214Z,89.83
2023-12-31T13:33:31.941Z,89.94
2023-12-31T13:35:58.898Z,90.56
2023-12-31T13:38:25.695Z,90.79
2023-12-31T13:40:52.828Z,92.29
2023-12-31T13:43:19.454Z,92.94
2023-12-31T13:45:46.164Z,94.25
2023-12-31T13:48:14.699Z,94.06
2023-12-31T13:50:41.916Z,94.77
2023-12-31T13:53:10.715Z,95.57
2023-12-31T13:55:37.410Z,96.48
2023-12-31T13:58:04.045Z,97.16
2023-12-31T14:00:30.517Z,96.83
2023-12-31T14:03:03.763Z,97.48
2023-12-31T14:05:34.031Z,96.99
2023-12-31T14:08:01.370Z,97.93
2023-12-31T14:10:28.004Z,98.82
2023-12-31T14:12:54.606Z,99.75
2023-12-31T14:15:21.545Z,100.00
2023-12-31T14:17:48.533Z,100.00
2023-12-31T14:20:15.267Z,99.90
2023-12-31T14:22:42.820Z,99.13
2023-12-31T14:25:10.178Z,97.40
2023-12-31T14:27:37.021Z,96.59
2023-12-31T14:30:04.727Z,94.57
2023-12-31T14:32:31.387Z,93.63
2023-12-31T14:34:58.080Z,93.06
2023-12-31T14:37:24.584Z,93.16
2023-12-31T14:39:51.088Z,90.24
2023-12-31T14:42:19.058Z,90.55
2023-12-31T14:44:45.743Z,90.16
2023-12-31T14:47:12.288Z,89.43
2023-12-31T14:49:38.871Z,88.70
2023-12-31T14:52:05.862Z,89.02
2023-12-31T14:54:32.786Z,89.26
2023-12-31T14:56:59.248Z,89.13
2023-12-31T14:59:25.674Z,89.71
2023-12-31T15:01:52.573Z,89.65
2023-12-31T15:04:19.395Z,90.59
2023-12-31T15:06:45.856Z,90.80
2023-12-31T15:09:12.519Z,90.92
2023-12-31T15:11:43.236Z,91.42
2023-12-31T15:14:10.867Z,90.17
2023-12-31T15:16:37.513Z,90.23
2023-12-31T15:19:04.324Z,90.32
2023-12-31T15:21:31.038Z,90.16
2023-12-31T15:23:57.875Z,90.02
2023-12-31T15:26:24.958Z,90.82
2023-12-31T15:28:52.054Z,89.98
2023-12-31T15:31:18.602Z,90.47
2023-12-31T15:33:45.228Z,90.21
2023-12-31T15:36:11.761Z,90.04
2023-12-31T15:38:39.513Z,89.71
2023-12-31T15:41:06.241Z,89.29
2023-12-31T15:43:32.800Z,88.95
2023-12-31T15:45:59.339Z,89.45
2023-12-31T15:48:25.903Z,89.52
2023-12-31T15:50:55.071Z,89.74
2023-12-31T15:53:21.770Z,88.58
2023-12-31T15:55:48.273Z,89.31
2023-12-31T15:58:14.776Z,89.70
2023-12-31T16:00:41.275Z,89.52
2023-12-31T16:03:07.979Z,89.26
2023-12-31T16:05:34.476Z,89.11
2023-12-31T16:08:01.647Z,90.01
2023-12-31T16:10:28.840Z,89.65
2023-12-31T16:12:55.307Z,89.23
2023-12-31T16:15:21.768Z,88.58
2023-12-31T16:17:48.468Z,88.96
2023-12-31T16:20:17.394Z,88.33
2023-12-31T16:22:44.403Z,87.79
2023-12-31T16:25:12.579Z,88.37
2023-12-31T16:27:39.124Z,87.30
2023-12-31T16:30:07.214Z,87.67
2023-12-31T16:32:34.401Z,88.29
2023-12-31T16:35:00.983Z,87.51
2023-12-31T16:37:28.180Z,87.72
2023-12-31T16:39:54.707Z,88.58
2023-12-31T16:42:21.247Z,88.07
2023-12-31T16:44:47.801Z,87.59
2023-12-31T16:47:14.757Z,87.29
2023-12-31T16:49:41.470Z,86.78
2023-12-31T16:52:08.068Z,87.12
2023-12-31T16:54:34.579Z,87.82
2023-12-31T16:57:01.085Z,87.93
2023-12-31T16:59:27.573Z,88.11
2023-12-31T17:01:54.076Z,87.59
2023-12-31T17:04:20.551Z,87.62
2023-12-31T17:06:47.040Z,87.76
2023-12-31T17:09:15.842Z,87.12
2023-12-31T17:11:45.651Z,87.96
2023-12-31T17:14:13.883Z,87.58
2023-12-31T17:16:41.390Z,87.34
2023-12-31T17:19:09.473Z,87.78
2023-12-31T17:21:36.344Z,87.58
2023-12-31T17:24:04.160Z,88.39
2023-12-31T17:26:30.769Z,88.69
2023-12-31T17:28:57.382Z,88.43
2023-12-31T17:31:23.967Z,89.39
2023-12-31T17:33:50.556Z,90.00
2023-12-31T17:36:17.192Z,89.11
2023-12-31T17:38:44.261Z,89.34
2023-12-31T17:41:12.162Z,89.54
2023-12-31T17:43:38.794Z,90.50
2023-12-31T17:46:05.345Z,90.10
2023-12-31T17:48:31.938Z,90.61
2023-12-31T17:50:58.543Z,90.81
2023-12-31T17:53:25.063Z,90.23
2023-12-31T17:55:52.089Z,90.85
2023-12-31T17:58:19.716Z,90.27
2023-12-31T18:00:46.182Z,90.86
2023-12-31T18:03:12.735Z,91.24
2023-12-31T18:05:39.244Z,91.12
2023-12-31T18:08:06.470Z,91.27
2023-12-31T18:10:33.154Z,91.13
2023-12-31T18:12:59.739Z,90.59
2023-12-31T18:15:26.233Z,91.44
2023-12-31T18:17:53.928Z,91.23
2023-12-31T18:20:20.450Z,90.83
2023-12-31T18:22:47.885Z,90.69
2023-12-31T18:25:14.430Z,90.08
2023-12-31T18:27:40.924Z,90.59
2023-12-31T18:30:15.914Z,90.77
2023-12-31T18:32:47.175Z,90.17
2023-12-31T18:35:13.849Z,90.76
2023-12-31T18:37:40.417Z,91.00
2023-12-31T18:40:07.566Z,90.58
2023-12-31T18:42:34.229Z,91.16
2023-12-31T18:45:00.909Z,90.44
2023-12-31T18:47:27.515Z,91.18
2023-12-31T18:49:53.965Z,91.40
2023-12-31T18:52:20.432Z,91.94
2023-12-31T18:54:47.210Z,91.01
2023-12-31T18:57:15.065Z,91.62
2023-12-31T18:59:43.542Z,91.62
2023-12-31T19:02:12.896Z,92.20
2023-12-31T19:04:41.162Z,91.58
2023-12-31T19:07:07.605Z,92.30
2023-12-31T19:09:34.142Z,92.69
2023-12-31T19:12:00.626Z,92.73
2023-12-31T19:14:27.121Z,92.86
2023-12-31T19:16:53.679Z,92.43
2023-12-31T19:19:20.160Z,92.42
2023-12-31T19:21:46.964Z,92.93
2023-12-31T19:24:13.404Z,92.69
2023-12-31T19:26:39.892Z,91.76
2023-12-31T19:29:06.426Z,92.30
2023-12-31T19:31:32.959Z,92.70
2023-12-31T19:33:59.490Z,92.17
2023-12-31T19:36:26.103Z,91.85
2023-12-31T19:38:52.534Z,92.77
2023-12-31T19:41:18.957Z,92.61
2023-12-31T19:44:05.523Z,92.05
2023-12-31T19:46:32.097Z,92.37
2023-12-31T19:48:59.430Z,92.49
2023-12-31T19:51:25.941Z,92.74
2023-12-31T19:53:52.437Z,92.79
2023-12-31T19:56:19.260Z,92.77
2023-12-31T19:58:45.910Z,92.71
2023-12-31T20:01:12.461Z,92.78
2023-12-31T20:03:45.279Z,92.42
2023-12-31T20:06:13.130Z,92.81
2023-12-31T20:08:39.729Z,92.92
2023-12-31T20:11:06.847Z,92.98
2023-12-31T20:13:33.660Z,92.53
2023-12-31T20:16:00.172Z,92.60
2023-12-31T20:18:26.723Z,92.22
2023-12-31T20:20:53.232Z,93.28
2023-12-31T20:23:21.761Z,93.12
2023-12-31T20:25:49.891Z,93.42
2023-12-31T20:28:16.423Z,92.81
2023-12-31T20:30:42.975Z,92.77
2023-12-31T20:33:10.070Z,92.93
2023-12-31T20:35:36.937Z,92.85
2023-12-31T20:38:03.465Z,93.08
2023-12-31T20:40:30.093Z,92.83
2023-12-31T20:42:56.630Z,92.80
2023-12-31T20:45:25.207Z,92.79
2023-12-31T20:47:52.348Z,92.86
2023-12-31T20:50:19.107Z,92.28
2023-12-31T20:52:45.654Z,92.63
2023-12-31T20:55:12.173Z,92.76
2023-12-31T20:57:38.718Z,92.43
2023-12-31T21:00:07.112Z,92.71
2023-12-31T21:02:33.943Z,92.57
2023-12-31T21:05:00.638Z,92.12
2023-12-31T21:07:27.312Z,92.32
2023-12-31T21:09:53.861Z,91.36
2023-12-31T21:12:20.383Z,91.70
2023-12-31T21:14:46.826Z,91.87
2023-12-31T21:17:13.473Z,92.16
2023-12-31T21:19:40.022Z,91.49
2023-12-31T21:22:07.123Z,91.56
2023-12-31T21:24:33.600Z,92.03
2023-12-31T21:27:00.036Z,91.24
2023-12-31T21:29:26.686Z,91.67
2023-12-31T21:31:53.235Z,92.02
2023-12-31T21:34:19.741Z,92.01
2023-12-31T21:36:46.213Z,92.06
2023-12-31T21:39:14.500Z,91.67
2023-12-31T21:41:43.081Z,91.54
2023-12-31T21:44:13.046Z,91.66
2023-12-31T21:46:39.909Z,92.04
2023-12-31T21:49:06.502Z,91.32
2023-12-31T21:51:35.338Z,91.20
2023-12-31T21:54:02.504Z,91.18
2023-12-31T21:56:47.104Z,91.46
2023-12-31T21:59:15.449Z,91.74
2023-12-31T22:01:41.945Z,91.32
2023-12-31T22:04:09.665Z,91.44
2023-12-31T22:06:36.188Z,91.38
2023-12-31T22:09:02.790Z,91.10
2023-12-31T22:11:29.629Z,91.34
2023-12-31T22:13:56.150Z,91.15
2023-12-31T22:16:22.725Z,91.13
2023-12-31T22:18:49.318Z,91.43
2023-12-31T22:21:15.969Z,91.86
2023-12-31T22:23:42.506Z,92.06
2023-12-31T22:26:09.022Z,91.56
2023-12-31T22:28:35.483Z,92.21
2023-12-31T22:31:01.943Z,92.75
2023-12-31T22:33:28.603Z,92.09
2023-12-31T22:35:55.117Z,92.39
2023-12-31T22:38:21.586Z,93.12
2023-12-31T22:40:48.091Z,93.24
2023-12-31T22:43:14.753Z,93.56
2023-12-31T22:45:41.207Z,93.48
2023-12-31T22:48:08.220Z,93.18
2023-12-31T22:50:34.988Z,92.75
2023-12-31T22:53:01.755Z,92.63
2023-12-31T22:55:28.281Z,93.38
2023-12-31T22:57:55.775Z,93.56
2023-12-31T23:00:22.419Z,93.39
2023-12-31T23:02:50.084Z,93.70
2023-12-31T23:05:16.838Z,94.09
2023-12-31T23:07:43.434Z,93.94
2023-12-31T23:10:10.105Z,93.71
2023-12-31T23:12:36.588Z,93.31
2023-12-31T23:15:03.383Z,93.63
2023-12-31T23:17:30.014Z,92.91
2023-12-31T23:19:56.602Z,93.62
2023-12-31T23:22:23.185Z,93.61
2023-12-31T23:24:49.711Z,93.37
2023-12-31T23:27:16.191Z,92.90
2023-12-31T23:29:44.488Z,93.36
2023-12-31T23:32:14.211Z,93.18
2023-12-31T23:34:40.762Z,93.66
2023-12-31T23:37:09.514Z,93.49
2023-12-31T23:39:37.698Z,93.20
2023-12-31T23:42:04.806Z,93.65
2023-12-31T23:44:31.802Z,93.94
2023-12-31T23:46:59.521Z,93.32
2023-12-31T23:49:27.782Z,93.68
2023-12-31T23:51:55.503Z,93.98
2023-12-31T23:54:23.845Z,93.52
2023-12-31T23:56:50.362Z,94.09
2023-12-31T23:59:16.920Z,94.17
